Oklahoma City, Oklahoma
Current Conditions -  °F | °C
As of 6:52 PM on Tuesday 25 Nov 2014 (Local Time) from KOKC Reporting Station
Overcast Overcast  
Wind Chill: 41°   Ceiling: 15000
Heat Index: 45°   Visibility: 10mi
Dew Point: 28°   Wind: 7mph
Humidity: 52%   Direction: 180°S
Pressure: 30.08"   Gusts: NA
Location:  35.47°N, 97.52°W
Report Text: KOKC 260052Z 18006KT 10SM BKN150 OVC250 07/M02 A3008 RMK AO2 SLP189 T00721022
Loading
Personal Weather Stations






























Interactive Weather Map New forecast layout! Learn more

10-Day Weather Forecast

Advertisements
Track Severe Weather on mobile